sensor_id;sensor_type;location;lat;lon;timestamp;P1;durP1;ratioP1;P2;durP2;ratioP2
14191;SDS011;7177;48.572;7.838;2024-02-15T00:00:11;10.40;;;6.07;;
14191;SDS011;7177;48.572;7.838;2024-02-15T00:02:37;10.73;;;6.30;;
14191;SDS011;7177;48.572;7.838;2024-02-15T00:05:03;11.57;;;6.20;;
14191;SDS011;7177;48.572;7.838;2024-02-15T00:07:29;13.87;;;6.50;;
14191;SDS011;7177;48.572;7.838;2024-02-15T00:09:55;11.17;;;5.73;;
14191;SDS011;7177;48.572;7.838;2024-02-15T00:12:20;11.20;;;6.20;;
14191;SDS011;7177;48.572;7.838;2024-02-15T00:14:46;10.00;;;5.83;;
14191;SDS011;7177;48.572;7.838;2024-02-15T00:17:11;9.43;;;5.83;;
14191;SDS011;7177;48.572;7.838;2024-02-15T00:19:37;7.40;;;5.70;;
14191;SDS011;7177;48.572;7.838;2024-02-15T00:22:04;10.57;;;6.17;;
14191;SDS011;7177;48.572;7.838;2024-02-15T00:24:30;10.47;;;6.00;;
14191;SDS011;7177;48.572;7.838;2024-02-15T00:26:56;10.10;;;5.60;;
14191;SDS011;7177;48.572;7.838;2024-02-15T00:29:22;8.80;;;5.37;;
14191;SDS011;7177;48.572;7.838;2024-02-15T00:31:47;8.03;;;5.93;;
14191;SDS011;7177;48.572;7.838;2024-02-15T00:34:14;8.90;;;5.43;;
14191;SDS011;7177;48.572;7.838;2024-02-15T00:36:44;7.80;;;6.20;;
14191;SDS011;7177;48.572;7.838;2024-02-15T00:39:10;9.53;;;5.83;;
14191;SDS011;7177;48.572;7.838;2024-02-15T00:41:36;13.17;;;6.50;;
14191;SDS011;7177;48.572;7.838;2024-02-15T00:44:06;7.43;;;6.17;;
14191;SDS011;7177;48.572;7.838;2024-02-15T00:46:33;12.67;;;6.33;;
14191;SDS011;7177;48.572;7.838;2024-02-15T00:48:59;11.50;;;6.07;;
14191;SDS011;7177;48.572;7.838;2024-02-15T00:51:24;9.80;;;6.20;;
14191;SDS011;7177;48.572;7.838;2024-02-15T00:53:50;7.43;;;6.20;;
14191;SDS011;7177;48.572;7.838;2024-02-15T00:56:15;9.97;;;6.87;;
14191;SDS011;7177;48.572;7.838;2024-02-15T00:58:42;12.90;;;6.53;;
14191;SDS011;7177;48.572;7.838;2024-02-15T01:01:08;12.73;;;7.17;;
14191;SDS011;7177;48.572;7.838;2024-02-15T01:03:34;9.97;;;6.30;;
14191;SDS011;7177;48.572;7.838;2024-02-15T01:06:00;9.97;;;6.33;;
14191;SDS011;7177;48.572;7.838;2024-02-15T01:08:26;8.73;;;6.80;;
14191;SDS011;7177;48.572;7.838;2024-02-15T01:10:51;11.87;;;7.10;;
14191;SDS011;7177;48.572;7.838;2024-02-15T01:13:18;9.27;;;6.60;;
14191;SDS011;7177;48.572;7.838;2024-02-15T01:15:44;7.77;;;5.80;;
14191;SDS011;7177;48.572;7.838;2024-02-15T01:18:11;11.37;;;7.20;;
14191;SDS011;7177;48.572;7.838;2024-02-15T01:20:36;11.67;;;6.47;;
14191;SDS011;7177;48.572;7.838;2024-02-15T01:23:02;11.50;;;7.93;;
14191;SDS011;7177;48.572;7.838;2024-02-15T01:25:30;9.13;;;6.60;;
14191;SDS011;7177;48.572;7.838;2024-02-15T01:27:55;12.03;;;7.33;;
14191;SDS011;7177;48.572;7.838;2024-02-15T01:30:21;9.07;;;6.53;;
14191;SDS011;7177;48.572;7.838;2024-02-15T01:32:46;11.57;;;7.60;;
14191;SDS011;7177;48.572;7.838;2024-02-15T01:35:12;14.60;;;6.90;;
14191;SDS011;7177;48.572;7.838;2024-02-15T01:37:38;11.77;;;7.67;;
14191;SDS011;7177;48.572;7.838;2024-02-15T01:40:04;13.40;;;7.90;;
14191;SDS011;7177;48.572;7.838;2024-02-15T01:42:31;12.57;;;7.50;;
14191;SDS011;7177;48.572;7.838;2024-02-15T01:44:57;15.33;;;6.90;;
14191;SDS011;7177;48.572;7.838;2024-02-15T01:47:23;9.93;;;7.00;;
14191;SDS011;7177;48.572;7.838;2024-02-15T01:49:49;15.37;;;7.73;;
14191;SDS011;7177;48.572;7.838;2024-02-15T01:52:15;11.37;;;7.53;;
14191;SDS011;7177;48.572;7.838;2024-02-15T01:54:42;15.10;;;6.90;;
14191;SDS011;7177;48.572;7.838;2024-02-15T01:57:08;10.40;;;6.50;;
14191;SDS011;7177;48.572;7.838;2024-02-15T01:59:33;9.07;;;6.50;;
14191;SDS011;7177;48.572;7.838;2024-02-15T02:01:59;11.57;;;6.43;;
14191;SDS011;7177;48.572;7.838;2024-02-15T02:04:27;10.17;;;7.00;;
14191;SDS011;7177;48.572;7.838;2024-02-15T02:06:52;13.07;;;6.40;;
14191;SDS011;7177;48.572;7.838;2024-02-15T02:09:23;13.10;;;7.10;;
14191;SDS011;7177;48.572;7.838;2024-02-15T02:11:49;11.03;;;6.67;;
14191;SDS011;7177;48.572;7.838;2024-02-15T02:14:15;10.00;;;6.50;;
14191;SDS011;7177;48.572;7.838;2024-02-15T02:16:41;9.93;;;7.10;;
14191;SDS011;7177;48.572;7.838;2024-02-15T02:19:06;13.30;;;7.33;;
14191;SDS011;7177;48.572;7.838;2024-02-15T02:21:34;11.70;;;6.80;;
14191;SDS011;7177;48.572;7.838;2024-02-15T02:24:04;10.03;;;7.00;;
14191;SDS011;7177;48.572;7.838;2024-02-15T02:26:45;10.80;;;6.17;;
14191;SDS011;7177;48.572;7.838;2024-02-15T02:29:11;10.00;;;6.27;;
14191;SDS011;7177;48.572;7.838;2024-02-15T02:31:37;10.80;;;6.73;;
14191;SDS011;7177;48.572;7.838;2024-02-15T02:34:03;10.10;;;6.13;;
14191;SDS011;7177;48.572;7.838;2024-02-15T02:36:28;12.40;;;6.30;;
14191;SDS011;7177;48.572;7.838;2024-02-15T02:38:54;8.50;;;6.20;;
14191;SDS011;7177;48.572;7.838;2024-02-15T02:41:25;14.17;;;6.17;;
14191;SDS011;7177;48.572;7.838;2024-02-15T02:43:50;8.40;;;5.90;;
14191;SDS011;7177;48.572;7.838;2024-02-15T02:46:16;9.13;;;6.10;;
14191;SDS011;7177;48.572;7.838;2024-02-15T02:48:41;9.77;;;6.10;;
14191;SDS011;7177;48.572;7.838;2024-02-15T02:51:07;10.77;;;6.03;;
14191;SDS011;7177;48.572;7.838;2024-02-15T02:53:32;10.60;;;5.87;;
14191;SDS011;7177;48.572;7.838;2024-02-15T02:55:58;7.63;;;5.97;;
14191;SDS011;7177;48.572;7.838;2024-02-15T02:58:24;8.63;;;5.80;;
14191;SDS011;7177;48.572;7.838;2024-02-15T03:00:50;10.17;;;5.80;;
14191;SDS011;7177;48.572;7.838;2024-02-15T03:03:16;9.87;;;6.37;;
14191;SDS011;7177;48.572;7.838;2024-02-15T03:05:42;10.87;;;6.37;;
14191;SDS011;7177;48.572;7.838;2024-02-15T03:08:08;9.57;;;5.90;;
14191;SDS011;7177;48.572;7.838;2024-02-15T03:10:34;9.27;;;6.23;;
14191;SDS011;7177;48.572;7.838;2024-02-15T03:13:00;12.77;;;5.90;;
14191;SDS011;7177;48.572;7.838;2024-02-15T03:15:25;10.00;;;6.00;;
14191;SDS011;7177;48.572;7.838;2024-02-15T03:17:51;10.57;;;6.17;;
14191;SDS011;7177;48.572;7.838;2024-02-15T03:20:17;9.37;;;6.23;;
14191;SDS011;7177;48.572;7.838;2024-02-15T03:22:55;14.63;;;7.17;;
14191;SDS011;7177;48.572;7.838;2024-02-15T03:25:24;12.87;;;8.00;;
14191;SDS011;7177;48.572;7.838;2024-02-15T03:27:51;13.60;;;7.77;;
14191;SDS011;7177;48.572;7.838;2024-02-15T03:30:18;11.57;;;7.47;;
14191;SDS011;7177;48.572;7.838;2024-02-15T03:32:44;11.07;;;7.50;;
14191;SDS011;7177;48.572;7.838;2024-02-15T03:35:12;13.67;;;8.17;;
14191;SDS011;7177;48.572;7.838;2024-02-15T03:37:39;13.60;;;7.97;;
14191;SDS011;7177;48.572;7.838;2024-02-15T03:40:05;12.70;;;7.97;;
14191;SDS011;7177;48.572;7.838;2024-02-15T03:42:33;11.60;;;8.37;;
14191;SDS011;7177;48.572;7.838;2024-02-15T03:45:02;11.80;;;8.30;;
14191;SDS011;7177;48.572;7.838;2024-02-15T03:47:28;15.30;;;8.83;;
14191;SDS011;7177;48.572;7.838;2024-02-15T03:49:54;11.97;;;8.27;;
14191;SDS011;7177;48.572;7.838;2024-02-15T03:52:20;13.20;;;8.37;;
14191;SDS011;7177;48.572;7.838;2024-02-15T03:54:47;11.87;;;7.57;;
14191;SDS011;7177;48.572;7.838;2024-02-15T03:57:12;14.90;;;8.17;;
14191;SDS011;7177;48.572;7.838;2024-02-15T03:59:38;12.70;;;7.47;;
14191;SDS011;7177;48.572;7.838;2024-02-15T04:02:05;14.13;;;7.77;;
14191;SDS011;7177;48.572;7.838;2024-02-15T04:04:33;11.97;;;8.00;;
14191;SDS011;7177;48.572;7.838;2024-02-15T04:06:59;12.63;;;8.20;;
14191;SDS011;7177;48.572;7.838;2024-02-15T04:09:25;15.30;;;7.67;;
14191;SDS011;7177;48.572;7.838;2024-02-15T04:11:50;12.00;;;7.70;;
14191;SDS011;7177;48.572;7.838;2024-02-15T04:14:18;13.80;;;7.10;;
14191;SDS011;7177;48.572;7.838;2024-02-15T04:16:44;10.53;;;6.87;;
14191;SDS011;7177;48.572;7.838;2024-02-15T04:19:10;10.63;;;7.23;;
14191;SDS011;7177;48.572;7.838;2024-02-15T04:21:36;8.63;;;6.30;;
14191;SDS011;7177;48.572;7.838;2024-02-15T04:24:02;8.50;;;6.00;;
14191;SDS011;7177;48.572;7.838;2024-02-15T04:26:30;10.50;;;5.80;;
14191;SDS011;7177;48.572;7.838;2024-02-15T04:28:56;9.93;;;5.33;;
14191;SDS011;7177;48.572;7.838;2024-02-15T04:31:23;11.37;;;5.70;;
14191;SDS011;7177;48.572;7.838;2024-02-15T04:33:51;11.37;;;5.47;;
14191;SDS011;7177;48.572;7.838;2024-02-15T04:36:18;8.20;;;5.77;;
14191;SDS011;7177;48.572;7.838;2024-02-15T04:38:48;9.03;;;5.10;;
14191;SDS011;7177;48.572;7.838;2024-02-15T04:41:17;12.33;;;5.60;;
14191;SDS011;7177;48.572;7.838;2024-02-15T04:43:48;8.23;;;5.60;;
14191;SDS011;7177;48.572;7.838;2024-02-15T04:46:14;13.20;;;5.90;;
14191;SDS011;7177;48.572;7.838;2024-02-15T04:48:40;7.03;;;5.60;;
14191;SDS011;7177;48.572;7.838;2024-02-15T04:51:10;16.60;;;6.23;;
14191;SDS011;7177;48.572;7.838;2024-02-15T04:53:36;7.53;;;5.60;;
14191;SDS011;7177;48.572;7.838;2024-02-15T04:56:05;7.77;;;5.80;;
14191;SDS011;7177;48.572;7.838;2024-02-15T04:58:36;9.23;;;4.93;;
14191;SDS011;7177;48.572;7.838;2024-02-15T05:01:03;6.17;;;4.57;;
14191;SDS011;7177;48.572;7.838;2024-02-15T05:03:30;10.30;;;4.77;;
14191;SDS011;7177;48.572;7.838;2024-02-15T05:05:59;8.00;;;4.83;;
14191;SDS011;7177;48.572;7.838;2024-02-15T05:08:25;7.67;;;5.43;;
14191;SDS011;7177;48.572;7.838;2024-02-15T05:10:51;6.67;;;4.40;;
14191;SDS011;7177;48.572;7.838;2024-02-15T05:13:21;6.57;;;5.10;;
14191;SDS011;7177;48.572;7.838;2024-02-15T05:15:48;6.27;;;5.10;;
14191;SDS011;7177;48.572;7.838;2024-02-15T05:18:14;6.33;;;4.83;;
14191;SDS011;7177;48.572;7.838;2024-02-15T05:20:41;6.43;;;4.67;;
14191;SDS011;7177;48.572;7.838;2024-02-15T05:23:07;6.77;;;5.20;;
14191;SDS011;7177;48.572;7.838;2024-02-15T05:25:33;7.00;;;4.80;;
14191;SDS011;7177;48.572;7.838;2024-02-15T05:28:00;8.60;;;4.87;;
14191;SDS011;7177;48.572;7.838;2024-02-15T05:30:26;8.53;;;4.80;;
14191;SDS011;7177;48.572;7.838;2024-02-15T05:32:51;7.53;;;4.23;;
14191;SDS011;7177;48.572;7.838;2024-02-15T05:35:18;7.23;;;4.10;;
14191;SDS011;7177;48.572;7.838;2024-02-15T05:37:43;6.57;;;5.00;;
14191;SDS011;7177;48.572;7.838;2024-02-15T05:40:10;5.80;;;5.00;;
14191;SDS011;7177;48.572;7.838;2024-02-15T05:42:41;8.53;;;5.03;;
14191;SDS011;7177;48.572;7.838;2024-02-15T05:47:54;7.13;;;4.97;;
14191;SDS011;7177;48.572;7.838;2024-02-15T05:50:19;9.43;;;5.00;;
14191;SDS011;7177;48.572;7.838;2024-02-15T05:52:46;8.63;;;4.83;;
14191;SDS011;7177;48.572;7.838;2024-02-15T05:55:12;11.10;;;4.80;;
14191;SDS011;7177;48.572;7.838;2024-02-15T05:57:44;5.67;;;4.60;;
14191;SDS011;7177;48.572;7.838;2024-02-15T06:00:10;6.80;;;4.63;;
14191;SDS011;7177;48.572;7.838;2024-02-15T06:02:36;6.30;;;4.13;;
14191;SDS011;7177;48.572;7.838;2024-02-15T06:05:01;6.17;;;4.57;;
14191;SDS011;7177;48.572;7.838;2024-02-15T06:07:29;7.17;;;4.67;;
14191;SDS011;7177;48.572;7.838;2024-02-15T06:09:56;5.63;;;4.37;;
14191;SDS011;7177;48.572;7.838;2024-02-15T06:12:28;6.77;;;4.67;;
14191;SDS011;7177;48.572;7.838;2024-02-15T06:14:57;6.40;;;4.73;;
14191;SDS011;7177;48.572;7.838;2024-02-15T06:17:22;8.90;;;4.93;;
14191;SDS011;7177;48.572;7.838;2024-02-15T06:19:48;9.27;;;4.87;;
14191;SDS011;7177;48.572;7.838;2024-02-15T06:22:13;7.57;;;4.60;;
14191;SDS011;7177;48.572;7.838;2024-02-15T06:24:39;4.73;;;4.10;;
14191;SDS011;7177;48.572;7.838;2024-02-15T06:27:06;7.10;;;4.60;;
14191;SDS011;7177;48.572;7.838;2024-02-15T06:29:32;4.93;;;4.27;;
14191;SDS011;7177;48.572;7.838;2024-02-15T06:32:16;5.23;;;4.00;;
14191;SDS011;7177;48.572;7.838;2024-02-15T06:35:19;5.73;;;4.67;;
14191;SDS011;7177;48.572;7.838;2024-02-15T06:38:03;4.83;;;3.73;;
14191;SDS011;7177;48.572;7.838;2024-02-15T06:40:47;5.57;;;3.83;;
14191;SDS011;7177;48.572;7.838;2024-02-15T06:43:13;5.40;;;4.17;;
14191;SDS011;7177;48.572;7.838;2024-02-15T06:45:39;6.83;;;4.40;;
14191;SDS011;7177;48.572;7.838;2024-02-15T06:48:09;5.67;;;4.20;;
14191;SDS011;7177;48.572;7.838;2024-02-15T06:50:35;7.97;;;4.63;;
14191;SDS011;7177;48.572;7.838;2024-02-15T06:53:02;5.70;;;4.00;;
14191;SDS011;7177;48.572;7.838;2024-02-15T06:55:28;4.63;;;3.90;;
14191;SDS011;7177;48.572;7.838;2024-02-15T06:57:53;4.87;;;3.90;;
14191;SDS011;7177;48.572;7.838;2024-02-15T07:00:20;5.23;;;3.60;;
14191;SDS011;7177;48.572;7.838;2024-02-15T07:02:45;5.40;;;3.70;;
14191;SDS011;7177;48.572;7.838;2024-02-15T07:05:12;4.97;;;3.77;;
14191;SDS011;7177;48.572;7.838;2024-02-15T07:07:38;6.13;;;3.97;;
14191;SDS011;7177;48.572;7.838;2024-02-15T07:10:04;5.30;;;3.67;;
14191;SDS011;7177;48.572;7.838;2024-02-15T07:12:30;5.53;;;4.00;;
14191;SDS011;7177;48.572;7.838;2024-02-15T07:14:57;6.20;;;4.53;;
14191;SDS011;7177;48.572;7.838;2024-02-15T07:17:23;8.50;;;5.20;;
14191;SDS011;7177;48.572;7.838;2024-02-15T07:19:48;8.40;;;4.97;;
14191;SDS011;7177;48.572;7.838;2024-02-15T07:22:16;11.00;;;7.67;;
14191;SDS011;7177;48.572;7.838;2024-02-15T07:24:42;12.07;;;6.80;;
14191;SDS011;7177;48.572;7.838;2024-02-15T07:27:08;8.20;;;4.93;;
14191;SDS011;7177;48.572;7.838;2024-02-15T07:29:34;7.03;;;5.00;;
14191;SDS011;7177;48.572;7.838;2024-02-15T07:32:02;7.13;;;4.83;;
14191;SDS011;7177;48.572;7.838;2024-02-15T07:34:29;8.43;;;5.47;;
14191;SDS011;7177;48.572;7.838;2024-02-15T07:36:55;9.60;;;5.90;;
14191;SDS011;7177;48.572;7.838;2024-02-15T07:39:22;8.53;;;5.57;;
14191;SDS011;7177;48.572;7.838;2024-02-15T07:41:50;8.57;;;6.20;;
14191;SDS011;7177;48.572;7.838;2024-02-15T07:44:16;8.53;;;5.40;;
14191;SDS011;7177;48.572;7.838;2024-02-15T07:46:42;7.50;;;5.30;;
14191;SDS011;7177;48.572;7.838;2024-02-15T07:49:08;12.50;;;5.60;;
14191;SDS011;7177;48.572;7.838;2024-02-15T07:51:34;7.20;;;5.70;;
14191;SDS011;7177;48.572;7.838;2024-02-15T07:53:59;7.73;;;6.63;;
14191;SDS011;7177;48.572;7.838;2024-02-15T07:56:26;9.83;;;6.90;;
14191;SDS011;7177;48.572;7.838;2024-02-15T07:58:52;10.80;;;7.17;;
14191;SDS011;7177;48.572;7.838;2024-02-15T08:01:18;10.60;;;6.67;;
14191;SDS011;7177;48.572;7.838;2024-02-15T08:03:46;15.40;;;7.00;;
14191;SDS011;7177;48.572;7.838;2024-02-15T08:06:12;11.77;;;7.30;;
14191;SDS011;7177;48.572;7.838;2024-02-15T08:08:40;9.80;;;7.43;;
14191;SDS011;7177;48.572;7.838;2024-02-15T08:11:12;13.20;;;7.77;;
14191;SDS011;7177;48.572;7.838;2024-02-15T08:13:45;13.70;;;7.87;;
14191;SDS011;7177;48.572;7.838;2024-02-15T08:16:14;14.40;;;8.83;;
14191;SDS011;7177;48.572;7.838;2024-02-15T08:18:41;11.17;;;7.47;;
14191;SDS011;7177;48.572;7.838;2024-02-15T08:21:11;12.20;;;7.80;;
14191;SDS011;7177;48.572;7.838;2024-02-15T08:23:37;9.77;;;7.07;;
14191;SDS011;7177;48.572;7.838;2024-02-15T08:26:02;9.93;;;6.70;;
14191;SDS011;7177;48.572;7.838;2024-02-15T08:28:28;8.73;;;6.57;;
14191;SDS011;7177;48.572;7.838;2024-02-15T08:30:54;9.27;;;5.87;;
14191;SDS011;7177;48.572;7.838;2024-02-15T08:33:23;8.90;;;6.30;;
14191;SDS011;7177;48.572;7.838;2024-02-15T08:35:49;12.53;;;7.40;;
14191;SDS011;7177;48.572;7.838;2024-02-15T08:38:15;10.87;;;7.47;;
14191;SDS011;7177;48.572;7.838;2024-02-15T08:40:42;9.90;;;6.60;;
14191;SDS011;7177;48.572;7.838;2024-02-15T08:43:10;10.80;;;7.20;;
14191;SDS011;7177;48.572;7.838;2024-02-15T08:45:36;8.40;;;6.63;;
14191;SDS011;7177;48.572;7.838;2024-02-15T08:48:02;9.93;;;6.30;;
14191;SDS011;7177;48.572;7.838;2024-02-15T08:50:29;9.67;;;5.80;;
14191;SDS011;7177;48.572;7.838;2024-02-15T08:52:55;9.03;;;6.77;;
14191;SDS011;7177;48.572;7.838;2024-02-15T08:55:21;11.90;;;6.67;;
14191;SDS011;7177;48.572;7.838;2024-02-15T08:57:51;10.63;;;5.97;;
14191;SDS011;7177;48.572;7.838;2024-02-15T09:00:18;8.23;;;6.27;;
14191;SDS011;7177;48.572;7.838;2024-02-15T09:02:43;6.77;;;5.43;;
14191;SDS011;7177;48.572;7.838;2024-02-15T09:05:09;7.50;;;5.90;;
14191;SDS011;7177;48.572;7.838;2024-02-15T09:07:38;9.43;;;5.30;;
14191;SDS011;7177;48.572;7.838;2024-02-15T09:10:06;10.90;;;5.93;;
14191;SDS011;7177;48.572;7.838;2024-02-15T09:12:34;8.57;;;5.10;;
14191;SDS011;7177;48.572;7.838;2024-02-15T09:15:01;6.77;;;4.80;;
14191;SDS011;7177;48.572;7.838;2024-02-15T09:17:28;8.23;;;4.17;;
14191;SDS011;7177;48.572;7.838;2024-02-15T09:19:56;9.40;;;4.70;;
14191;SDS011;7177;48.572;7.838;2024-02-15T09:22:22;6.30;;;4.37;;
14191;SDS011;7177;48.572;7.838;2024-02-15T09:24:48;10.60;;;4.80;;
14191;SDS011;7177;48.572;7.838;2024-02-15T09:27:13;9.63;;;4.57;;
14191;SDS011;7177;48.572;7.838;2024-02-15T09:29:39;8.30;;;4.87;;
14191;SDS011;7177;48.572;7.838;2024-02-15T09:32:05;6.07;;;4.60;;
14191;SDS011;7177;48.572;7.838;2024-02-15T09:34:31;10.43;;;4.80;;
14191;SDS011;7177;48.572;7.838;2024-02-15T09:36:57;6.30;;;4.40;;
14191;SDS011;7177;48.572;7.838;2024-02-15T09:39:23;6.70;;;4.77;;
14191;SDS011;7177;48.572;7.838;2024-02-15T09:41:49;6.33;;;3.50;;
14191;SDS011;7177;48.572;7.838;2024-02-15T09:44:23;7.47;;;4.27;;
14191;SDS011;7177;48.572;7.838;2024-02-15T09:46:53;6.37;;;3.57;;
14191;SDS011;7177;48.572;7.838;2024-02-15T09:49:28;7.03;;;3.70;;
14191;SDS011;7177;48.572;7.838;2024-02-15T09:51:54;5.53;;;3.17;;
14191;SDS011;7177;48.572;7.838;2024-02-15T09:54:22;8.13;;;3.70;;
14191;SDS011;7177;48.572;7.838;2024-02-15T09:56:48;5.87;;;3.53;;
14191;SDS011;7177;48.572;7.838;2024-02-15T09:59:18;6.07;;;3.17;;
14191;SDS011;7177;48.572;7.838;2024-02-15T10:01:44;5.57;;;3.10;;
14191;SDS011;7177;48.572;7.838;2024-02-15T10:04:12;4.37;;;3.20;;
14191;SDS011;7177;48.572;7.838;2024-02-15T10:06:41;15.10;;;3.73;;
14191;SDS011;7177;48.572;7.838;2024-02-15T10:09:23;6.57;;;3.47;;
14191;SDS011;7177;48.572;7.838;2024-02-15T10:11:59;9.90;;;3.43;;
14191;SDS011;7177;48.572;7.838;2024-02-15T10:14:25;8.63;;;3.17;;
14191;SDS011;7177;48.572;7.838;2024-02-15T10:16:55;6.40;;;3.30;;
14191;SDS011;7177;48.572;7.838;2024-02-15T10:19:21;4.97;;;3.37;;
14191;SDS011;7177;48.572;7.838;2024-02-15T10:21:53;6.10;;;3.10;;
14191;SDS011;7177;48.572;7.838;2024-02-15T10:24:23;3.37;;;2.60;;
14191;SDS011;7177;48.572;7.838;2024-02-15T10:26:49;5.50;;;2.70;;
14191;SDS011;7177;48.572;7.838;2024-02-15T10:29:16;4.13;;;3.17;;
14191;SDS011;7177;48.572;7.838;2024-02-15T10:32:15;4.43;;;3.30;;
14191;SDS011;7177;48.572;7.838;2024-02-15T10:34:35;5.90;;;2.90;;
14191;SDS011;7177;48.572;7.838;2024-02-15T10:37:10;3.57;;;2.80;;
14191;SDS011;7177;48.572;7.838;2024-02-15T10:39:37;6.63;;;3.30;;
14191;SDS011;7177;48.572;7.838;2024-02-15T10:42:03;3.70;;;2.80;;
14191;SDS011;7177;48.572;7.838;2024-02-15T10:44:32;5.53;;;3.30;;
14191;SDS011;7177;48.572;7.838;2024-02-15T10:46:59;6.67;;;3.27;;
14191;SDS011;7177;48.572;7.838;2024-02-15T10:49:26;6.43;;;3.67;;
14191;SDS011;7177;48.572;7.838;2024-02-15T10:51:56;6.50;;;3.83;;
14191;SDS011;7177;48.572;7.838;2024-02-15T10:54:42;8.30;;;3.90;;
14191;SDS011;7177;48.572;7.838;2024-02-15T10:57:15;5.80;;;3.20;;
14191;SDS011;7177;48.572;7.838;2024-02-15T10:59:51;8.40;;;3.70;;
14191;SDS011;7177;48.572;7.838;2024-02-15T11:02:28;5.53;;;3.43;;
14191;SDS011;7177;48.572;7.838;2024-02-15T11:04:55;6.47;;;3.50;;
14191;SDS011;7177;48.572;7.838;2024-02-15T11:07:29;5.33;;;3.70;;
14191;SDS011;7177;48.572;7.838;2024-02-15T11:09:56;11.07;;;4.23;;
14191;SDS011;7177;48.572;7.838;2024-02-15T11:12:22;5.90;;;3.87;;
14191;SDS011;7177;48.572;7.838;2024-02-15T11:14:50;6.80;;;3.70;;
14191;SDS011;7177;48.572;7.838;2024-02-15T11:23:01;5.63;;;3.43;;
14191;SDS011;7177;48.572;7.838;2024-02-15T11:25:35;5.97;;;2.87;;
14191;SDS011;7177;48.572;7.838;2024-02-15T11:28:33;3.80;;;2.80;;
14191;SDS011;7177;48.572;7.838;2024-02-15T11:31:01;8.23;;;3.67;;
14191;SDS011;7177;48.572;7.838;2024-02-15T11:33:34;7.47;;;3.10;;
14191;SDS011;7177;48.572;7.838;2024-02-15T11:38:36;4.57;;;3.13;;
14191;SDS011;7177;48.572;7.838;2024-02-15T11:41:06;4.00;;;3.30;;
14191;SDS011;7177;48.572;7.838;2024-02-15T11:43:48;6.50;;;3.40;;
14191;SDS011;7177;48.572;7.838;2024-02-15T11:46:15;4.43;;;2.77;;
14191;SDS011;7177;48.572;7.838;2024-02-15T11:48:45;5.10;;;2.43;;
14191;SDS011;7177;48.572;7.838;2024-02-15T11:51:24;4.40;;;2.77;;
14191;SDS011;7177;48.572;7.838;2024-02-15T11:54:05;3.13;;;2.33;;
14191;SDS011;7177;48.572;7.838;2024-02-15T11:56:53;5.80;;;2.67;;
14191;SDS011;7177;48.572;7.838;2024-02-15T11:59:44;4.63;;;2.80;;
14191;SDS011;7177;48.572;7.838;2024-02-15T12:02:31;5.10;;;2.80;;
14191;SDS011;7177;48.572;7.838;2024-02-15T12:05:16;5.03;;;2.83;;
14191;SDS011;7177;48.572;7.838;2024-02-15T12:08:01;3.67;;;2.80;;
14191;SDS011;7177;48.572;7.838;2024-02-15T12:10:56;5.20;;;2.53;;
14191;SDS011;7177;48.572;7.838;2024-02-15T12:13:43;3.10;;;2.50;;
14191;SDS011;7177;48.572;7.838;2024-02-15T12:16:32;5.63;;;2.80;;
14191;SDS011;7177;48.572;7.838;2024-02-15T12:19:16;5.23;;;2.40;;
14191;SDS011;7177;48.572;7.838;2024-02-15T12:21:42;5.93;;;2.43;;
14191;SDS011;7177;48.572;7.838;2024-02-15T12:24:08;4.87;;;2.57;;
14191;SDS011;7177;48.572;7.838;2024-02-15T12:26:34;4.40;;;2.30;;
14191;SDS011;7177;48.572;7.838;2024-02-15T12:29:00;5.20;;;2.30;;
14191;SDS011;7177;48.572;7.838;2024-02-15T12:31:26;3.93;;;2.30;;
14191;SDS011;7177;48.572;7.838;2024-02-15T12:34:02;4.30;;;2.30;;
14191;SDS011;7177;48.572;7.838;2024-02-15T12:36:31;2.73;;;2.30;;
14191;SDS011;7177;48.572;7.838;2024-02-15T12:39:01;4.27;;;2.30;;
14191;SDS011;7177;48.572;7.838;2024-02-15T12:41:35;4.13;;;2.17;;
14191;SDS011;7177;48.572;7.838;2024-02-15T12:44:02;3.50;;;1.93;;
14191;SDS011;7177;48.572;7.838;2024-02-15T12:46:29;4.20;;;2.20;;
14191;SDS011;7177;48.572;7.838;2024-02-15T12:49:12;3.27;;;1.97;;
14191;SDS011;7177;48.572;7.838;2024-02-15T12:51:49;4.73;;;2.30;;
14191;SDS011;7177;48.572;7.838;2024-02-15T12:54:22;7.40;;;2.30;;
14191;SDS011;7177;48.572;7.838;2024-02-15T12:56:48;4.90;;;2.40;;
14191;SDS011;7177;48.572;7.838;2024-02-15T12:59:14;7.40;;;2.70;;
14191;SDS011;7177;48.572;7.838;2024-02-15T13:01:40;5.13;;;2.63;;
14191;SDS011;7177;48.572;7.838;2024-02-15T13:04:05;6.93;;;2.63;;
14191;SDS011;7177;48.572;7.838;2024-02-15T13:06:31;3.57;;;2.40;;
14191;SDS011;7177;48.572;7.838;2024-02-15T13:09:00;3.07;;;2.23;;
14191;SDS011;7177;48.572;7.838;2024-02-15T13:11:27;4.23;;;2.30;;
14191;SDS011;7177;48.572;7.838;2024-02-15T13:13:53;4.00;;;2.00;;
14191;SDS011;7177;48.572;7.838;2024-02-15T13:16:19;5.17;;;2.40;;
14191;SDS011;7177;48.572;7.838;2024-02-15T13:18:47;4.43;;;2.37;;
14191;SDS011;7177;48.572;7.838;2024-02-15T13:21:13;4.93;;;2.40;;
14191;SDS011;7177;48.572;7.838;2024-02-15T13:23:39;4.27;;;2.00;;
14191;SDS011;7177;48.572;7.838;2024-02-15T13:26:04;3.33;;;2.20;;
14191;SDS011;7177;48.572;7.838;2024-02-15T13:28:30;3.90;;;2.13;;
14191;SDS011;7177;48.572;7.838;2024-02-15T13:30:56;3.50;;;2.10;;
14191;SDS011;7177;48.572;7.838;2024-02-15T13:33:21;4.33;;;1.90;;
14191;SDS011;7177;48.572;7.838;2024-02-15T13:35:47;3.73;;;2.07;;
14191;SDS011;7177;48.572;7.838;2024-02-15T13:38:14;7.30;;;2.33;;
14191;SDS011;7177;48.572;7.838;2024-02-15T13:40:47;4.57;;;2.60;;
14191;SDS011;7177;48.572;7.838;2024-02-15T13:43:17;3.80;;;2.20;;
14191;SDS011;7177;48.572;7.838;2024-02-15T13:45:43;5.13;;;2.33;;
14191;SDS011;7177;48.572;7.838;2024-02-15T13:48:10;2.87;;;2.00;;
14191;SDS011;7177;48.572;7.838;2024-02-15T13:50:39;5.13;;;2.27;;
14191;SDS011;7177;48.572;7.838;2024-02-15T13:53:05;3.03;;;2.10;;
14191;SDS011;7177;48.572;7.838;2024-02-15T13:55:31;3.47;;;1.90;;
14191;SDS011;7177;48.572;7.838;2024-02-15T13:57:57;2.90;;;2.00;;
14191;SDS011;7177;48.572;7.838;2024-02-15T14:00:23;3.50;;;1.80;;
14191;SDS011;7177;48.572;7.838;2024-02-15T14:03:02;3.73;;;1.90;;
14191;SDS011;7177;48.572;7.838;2024-02-15T14:05:31;4.47;;;1.90;;
14191;SDS011;7177;48.572;7.838;2024-02-15T14:07:58;3.00;;;1.70;;
14191;SDS011;7177;48.572;7.838;2024-02-15T14:10:25;5.83;;;1.77;;
14191;SDS011;7177;48.572;7.838;2024-02-15T14:12:53;4.93;;;2.30;;
14191;SDS011;7177;48.572;7.838;2024-02-15T14:15:31;4.03;;;2.20;;
14191;SDS011;7177;48.572;7.838;2024-02-15T14:18:07;5.37;;;2.53;;
14191;SDS011;7177;48.572;7.838;2024-02-15T14:20:43;3.13;;;2.20;;
14191;SDS011;7177;48.572;7.838;2024-02-15T14:23:11;2.80;;;2.03;;
14191;SDS011;7177;48.572;7.838;2024-02-15T14:25:38;4.50;;;2.33;;
14191;SDS011;7177;48.572;7.838;2024-02-15T14:28:04;5.10;;;2.57;;
14191;SDS011;7177;48.572;7.838;2024-02-15T14:30:33;7.13;;;2.83;;
14191;SDS011;7177;48.572;7.838;2024-02-15T14:33:18;4.37;;;2.90;;
14191;SDS011;7177;48.572;7.838;2024-02-15T14:35:44;5.17;;;2.77;;
14191;SDS011;7177;48.572;7.838;2024-02-15T14:38:11;8.73;;;3.30;;
14191;SDS011;7177;48.572;7.838;2024-02-15T14:40:39;4.17;;;3.00;;
14191;SDS011;7177;48.572;7.838;2024-02-15T14:43:06;4.53;;;2.83;;
14191;SDS011;7177;48.572;7.838;2024-02-15T14:45:39;5.57;;;2.50;;
14191;SDS011;7177;48.572;7.838;2024-02-15T14:48:11;6.83;;;2.83;;
14191;SDS011;7177;48.572;7.838;2024-02-15T14:50:37;3.03;;;2.17;;
14191;SDS011;7177;48.572;7.838;2024-02-15T14:53:06;4.77;;;2.70;;
14191;SDS011;7177;48.572;7.838;2024-02-15T14:55:35;2.80;;;2.10;;
14191;SDS011;7177;48.572;7.838;2024-02-15T14:58:04;4.83;;;2.23;;
14191;SDS011;7177;48.572;7.838;2024-02-15T15:00:32;3.27;;;2.00;;
14191;SDS011;7177;48.572;7.838;2024-02-15T15:03:02;4.97;;;1.70;;
14191;SDS011;7177;48.572;7.838;2024-02-15T15:05:31;3.07;;;1.87;;
14191;SDS011;7177;48.572;7.838;2024-02-15T15:08:15;2.63;;;1.70;;
14191;SDS011;7177;48.572;7.838;2024-02-15T15:10:59;4.03;;;2.30;;
14191;SDS011;7177;48.572;7.838;2024-02-15T15:13:54;5.03;;;2.17;;
14191;SDS011;7177;48.572;7.838;2024-02-15T15:16:19;3.13;;;2.03;;